Rijkevorsel, Belgium
Current Conditions -  °F | °C
As of 5:25 PM on Saturday 22 Nov 2014 (Local Time) from EHGR Reporting Station
Broken Clouds Broken Clouds  
Wind Chill: 52°   Ceiling: 25000
Heat Index: 52°   Visibility: 6mi
Dew Point: 48°   Wind: 6mph
Humidity: 88%   Direction: 160°SSE
Pressure: 30"   Gusts: NA
Location:  51.35°N, 4.76°E
Report Text: EHGR 221625Z AUTO 16005KT 9999 BKN250 11/09 Q1016 BLU
Loading
Personal Weather Stations






























Interactive Weather Map New forecast layout! Learn more

10-Day Weather Forecast

Advertisements
Track Severe Weather on mobile